sensor_id;sensor_type;location;lat;lon;timestamp;P1;durP1;ratioP1;P2;durP2;ratioP2
4389;SDS011;2209;48.982;8.406;2023-12-20T00:02:18;3.97;;;3.30;;
4389;SDS011;2209;48.982;8.406;2023-12-20T00:04:40;4.23;;;3.93;;
4389;SDS011;2209;48.982;8.406;2023-12-20T00:07:04;5.10;;;4.60;;
4389;SDS011;2209;48.982;8.406;2023-12-20T00:09:26;5.20;;;4.70;;
4389;SDS011;2209;48.982;8.406;2023-12-20T00:11:48;4.93;;;4.40;;
4389;SDS011;2209;48.982;8.406;2023-12-20T00:14:10;9.10;;;4.43;;
4389;SDS011;2209;48.982;8.406;2023-12-20T00:16:32;6.00;;;4.60;;
4389;SDS011;2209;48.982;8.406;2023-12-20T00:18:54;3.90;;;3.37;;
4389;SDS011;2209;48.982;8.406;2023-12-20T00:21:16;4.80;;;4.00;;
4389;SDS011;2209;48.982;8.406;2023-12-20T00:23:40;4.53;;;4.13;;
4389;SDS011;2209;48.982;8.406;2023-12-20T00:26:02;4.33;;;3.97;;
4389;SDS011;2209;48.982;8.406;2023-12-20T00:28:24;4.33;;;3.73;;
4389;SDS011;2209;48.982;8.406;2023-12-20T00:30:46;5.57;;;4.07;;
4389;SDS011;2209;48.982;8.406;2023-12-20T00:33:09;4.07;;;3.77;;
4389;SDS011;2209;48.982;8.406;2023-12-20T00:35:31;4.37;;;3.97;;
4389;SDS011;2209;48.982;8.406;2023-12-20T00:37:53;4.60;;;4.10;;
4389;SDS011;2209;48.982;8.406;2023-12-20T00:40:16;4.23;;;3.50;;
4389;SDS011;2209;48.982;8.406;2023-12-20T00:42:38;5.20;;;4.70;;
4389;SDS011;2209;48.982;8.406;2023-12-20T00:45:00;4.03;;;3.63;;
4389;SDS011;2209;48.982;8.406;2023-12-20T00:47:23;5.20;;;3.43;;
4389;SDS011;2209;48.982;8.406;2023-12-20T00:49:45;4.83;;;4.27;;
4389;SDS011;2209;48.982;8.406;2023-12-20T00:52:07;4.20;;;3.80;;
4389;SDS011;2209;48.982;8.406;2023-12-20T00:54:29;4.70;;;4.20;;
4389;SDS011;2209;48.982;8.406;2023-12-20T00:56:52;8.03;;;3.90;;
4389;SDS011;2209;48.982;8.406;2023-12-20T00:59:15;3.87;;;3.47;;
4389;SDS011;2209;48.982;8.406;2023-12-20T01:01:37;3.77;;;3.47;;
4389;SDS011;2209;48.982;8.406;2023-12-20T01:03:59;3.10;;;2.90;;
4389;SDS011;2209;48.982;8.406;2023-12-20T01:06:21;5.10;;;3.67;;
4389;SDS011;2209;48.982;8.406;2023-12-20T01:08:43;4.30;;;3.90;;
4389;SDS011;2209;48.982;8.406;2023-12-20T01:11:06;4.03;;;3.73;;
4389;SDS011;2209;48.982;8.406;2023-12-20T01:13:29;4.43;;;3.47;;
4389;SDS011;2209;48.982;8.406;2023-12-20T01:15:51;4.43;;;3.50;;
4389;SDS011;2209;48.982;8.406;2023-12-20T01:18:13;5.93;;;3.43;;
4389;SDS011;2209;48.982;8.406;2023-12-20T01:20:35;3.90;;;3.60;;
4389;SDS011;2209;48.982;8.406;2023-12-20T01:22:57;4.90;;;4.37;;
4389;SDS011;2209;48.982;8.406;2023-12-20T01:25:19;3.87;;;3.57;;
4389;SDS011;2209;48.982;8.406;2023-12-20T01:27:40;4.87;;;4.37;;
4389;SDS011;2209;48.982;8.406;2023-12-20T01:30:05;4.20;;;3.80;;
4389;SDS011;2209;48.982;8.406;2023-12-20T01:32:27;4.57;;;4.27;;
4389;SDS011;2209;48.982;8.406;2023-12-20T01:34:49;4.10;;;3.53;;
4389;SDS011;2209;48.982;8.406;2023-12-20T01:37:12;4.47;;;4.10;;
4389;SDS011;2209;48.982;8.406;2023-12-20T01:39:34;3.80;;;3.50;;
4389;SDS011;2209;48.982;8.406;2023-12-20T01:41:56;3.50;;;3.20;;
4389;SDS011;2209;48.982;8.406;2023-12-20T01:44:18;3.80;;;3.57;;
4389;SDS011;2209;48.982;8.406;2023-12-20T01:46:41;5.50;;;3.93;;
4389;SDS011;2209;48.982;8.406;2023-12-20T01:49:03;3.87;;;3.57;;
4389;SDS011;2209;48.982;8.406;2023-12-20T01:51:26;4.20;;;3.80;;
4389;SDS011;2209;48.982;8.406;2023-12-20T01:53:48;4.77;;;4.40;;
4389;SDS011;2209;48.982;8.406;2023-12-20T01:56:10;6.03;;;4.17;;
4389;SDS011;2209;48.982;8.406;2023-12-20T01:58:33;4.47;;;4.17;;
4389;SDS011;2209;48.982;8.406;2023-12-20T02:00:56;3.97;;;3.60;;
4389;SDS011;2209;48.982;8.406;2023-12-20T02:03:20;3.80;;;3.37;;
4389;SDS011;2209;48.982;8.406;2023-12-20T02:05:42;4.50;;;3.60;;
4389;SDS011;2209;48.982;8.406;2023-12-20T02:08:06;3.27;;;3.03;;
4389;SDS011;2209;48.982;8.406;2023-12-20T02:10:28;3.90;;;2.93;;
4389;SDS011;2209;48.982;8.406;2023-12-20T02:12:51;2.87;;;2.67;;
4389;SDS011;2209;48.982;8.406;2023-12-20T02:15:13;3.10;;;2.90;;
4389;SDS011;2209;48.982;8.406;2023-12-20T02:17:35;3.53;;;2.97;;
4389;SDS011;2209;48.982;8.406;2023-12-20T02:19:59;4.50;;;3.47;;
4389;SDS011;2209;48.982;8.406;2023-12-20T02:22:22;3.43;;;3.10;;
4389;SDS011;2209;48.982;8.406;2023-12-20T02:24:44;3.30;;;3.00;;
4389;SDS011;2209;48.982;8.406;2023-12-20T02:27:07;3.43;;;3.17;;
4389;SDS011;2209;48.982;8.406;2023-12-20T02:29:29;3.10;;;2.90;;
4389;SDS011;2209;48.982;8.406;2023-12-20T02:31:52;4.27;;;3.80;;
4389;SDS011;2209;48.982;8.406;2023-12-20T02:34:14;3.70;;;3.40;;
4389;SDS011;2209;48.982;8.406;2023-12-20T02:36:36;3.43;;;3.00;;
4389;SDS011;2209;48.982;8.406;2023-12-20T02:39:00;3.30;;;3.00;;
4389;SDS011;2209;48.982;8.406;2023-12-20T02:41:22;5.67;;;3.50;;
4389;SDS011;2209;48.982;8.406;2023-12-20T02:43:45;3.37;;;2.93;;
4389;SDS011;2209;48.982;8.406;2023-12-20T02:46:07;3.40;;;3.20;;
4389;SDS011;2209;48.982;8.406;2023-12-20T02:48:29;4.40;;;3.87;;
4389;SDS011;2209;48.982;8.406;2023-12-20T02:50:51;3.90;;;3.60;;
4389;SDS011;2209;48.982;8.406;2023-12-20T02:53:13;4.13;;;3.83;;
4389;SDS011;2209;48.982;8.406;2023-12-20T02:55:37;4.40;;;3.20;;
4389;SDS011;2209;48.982;8.406;2023-12-20T02:57:59;3.70;;;3.40;;
4389;SDS011;2209;48.982;8.406;2023-12-20T03:00:21;4.27;;;3.87;;
4389;SDS011;2209;48.982;8.406;2023-12-20T03:02:43;3.50;;;3.20;;
4389;SDS011;2209;48.982;8.406;2023-12-20T03:05:05;4.17;;;3.77;;
4389;SDS011;2209;48.982;8.406;2023-12-20T03:07:27;3.90;;;3.60;;
4389;SDS011;2209;48.982;8.406;2023-12-20T03:09:50;3.43;;;3.13;;
4389;SDS011;2209;48.982;8.406;2023-12-20T03:12:13;3.97;;;3.63;;
4389;SDS011;2209;48.982;8.406;2023-12-20T03:14:35;4.80;;;4.37;;
4389;SDS011;2209;48.982;8.406;2023-12-20T03:16:57;4.77;;;3.40;;
4389;SDS011;2209;48.982;8.406;2023-12-20T03:19:19;4.10;;;3.80;;
4389;SDS011;2209;48.982;8.406;2023-12-20T03:21:41;3.30;;;3.10;;
4389;SDS011;2209;48.982;8.406;2023-12-20T03:24:03;3.87;;;3.57;;
4389;SDS011;2209;48.982;8.406;2023-12-20T03:26:26;4.80;;;3.00;;
4389;SDS011;2209;48.982;8.406;2023-12-20T03:28:49;3.87;;;3.57;;
4389;SDS011;2209;48.982;8.406;2023-12-20T03:31:12;4.03;;;3.63;;
4389;SDS011;2209;48.982;8.406;2023-12-20T03:33:34;4.83;;;3.80;;
4389;SDS011;2209;48.982;8.406;2023-12-20T03:35:56;3.67;;;3.37;;
4389;SDS011;2209;48.982;8.406;2023-12-20T03:38:18;3.87;;;3.57;;
4389;SDS011;2209;48.982;8.406;2023-12-20T03:40:40;4.00;;;3.70;;
4389;SDS011;2209;48.982;8.406;2023-12-20T03:43:02;3.10;;;2.87;;
4389;SDS011;2209;48.982;8.406;2023-12-20T03:45:26;3.90;;;3.60;;
4389;SDS011;2209;48.982;8.406;2023-12-20T03:47:48;4.90;;;3.47;;
4389;SDS011;2209;48.982;8.406;2023-12-20T03:50:10;3.60;;;3.30;;
4389;SDS011;2209;48.982;8.406;2023-12-20T03:52:32;3.60;;;3.30;;
4389;SDS011;2209;48.982;8.406;2023-12-20T03:54:54;3.93;;;3.63;;
4389;SDS011;2209;48.982;8.406;2023-12-20T03:57:16;7.83;;;3.90;;
4389;SDS011;2209;48.982;8.406;2023-12-20T03:59:38;3.60;;;3.30;;
4389;SDS011;2209;48.982;8.406;2023-12-20T04:02:02;3.50;;;3.10;;
4389;SDS011;2209;48.982;8.406;2023-12-20T04:04:24;3.73;;;2.70;;
4389;SDS011;2209;48.982;8.406;2023-12-20T04:06:46;3.47;;;3.27;;
4389;SDS011;2209;48.982;8.406;2023-12-20T04:09:09;3.47;;;3.23;;
4389;SDS011;2209;48.982;8.406;2023-12-20T04:11:31;6.00;;;3.17;;
4389;SDS011;2209;48.982;8.406;2023-12-20T04:13:53;3.90;;;2.90;;
4389;SDS011;2209;48.982;8.406;2023-12-20T04:16:15;5.33;;;3.10;;
4389;SDS011;2209;48.982;8.406;2023-12-20T04:18:38;3.10;;;2.90;;
4389;SDS011;2209;48.982;8.406;2023-12-20T04:21:00;3.57;;;3.00;;
4389;SDS011;2209;48.982;8.406;2023-12-20T04:23:22;3.20;;;3.00;;
4389;SDS011;2209;48.982;8.406;2023-12-20T04:25:44;4.20;;;3.60;;
4389;SDS011;2209;48.982;8.406;2023-12-20T04:28:07;4.00;;;3.70;;
4389;SDS011;2209;48.982;8.406;2023-12-20T04:30:29;3.50;;;3.20;;
4389;SDS011;2209;48.982;8.406;2023-12-20T04:32:51;3.53;;;3.23;;
4389;SDS011;2209;48.982;8.406;2023-12-20T04:35:14;4.10;;;3.47;;
4389;SDS011;2209;48.982;8.406;2023-12-20T04:37:36;3.37;;;3.07;;
4389;SDS011;2209;48.982;8.406;2023-12-20T04:39:58;3.00;;;2.80;;
4389;SDS011;2209;48.982;8.406;2023-12-20T04:42:20;3.23;;;2.93;;
4389;SDS011;2209;48.982;8.406;2023-12-20T04:44:42;3.20;;;3.00;;
4389;SDS011;2209;48.982;8.406;2023-12-20T04:47:05;3.10;;;2.90;;
4389;SDS011;2209;48.982;8.406;2023-12-20T04:49:27;3.40;;;3.10;;
4389;SDS011;2209;48.982;8.406;2023-12-20T04:51:50;3.57;;;3.20;;
4389;SDS011;2209;48.982;8.406;2023-12-20T04:54:12;3.57;;;3.27;;
4389;SDS011;2209;48.982;8.406;2023-12-20T04:56:35;3.17;;;2.80;;
4389;SDS011;2209;48.982;8.406;2023-12-20T04:58:57;5.10;;;3.50;;
4389;SDS011;2209;48.982;8.406;2023-12-20T05:01:19;3.57;;;3.27;;
4389;SDS011;2209;48.982;8.406;2023-12-20T05:03:41;3.30;;;2.80;;
4389;SDS011;2209;48.982;8.406;2023-12-20T05:06:04;3.47;;;3.13;;
4389;SDS011;2209;48.982;8.406;2023-12-20T05:08:27;3.27;;;3.00;;
4389;SDS011;2209;48.982;8.406;2023-12-20T05:10:49;3.50;;;3.20;;
4389;SDS011;2209;48.982;8.406;2023-12-20T05:13:11;3.67;;;3.33;;
4389;SDS011;2209;48.982;8.406;2023-12-20T05:15:33;3.70;;;3.40;;
4389;SDS011;2209;48.982;8.406;2023-12-20T05:17:55;3.27;;;3.07;;
4389;SDS011;2209;48.982;8.406;2023-12-20T05:20:17;3.37;;;3.17;;
4389;SDS011;2209;48.982;8.406;2023-12-20T05:22:40;3.00;;;2.80;;
4389;SDS011;2209;48.982;8.406;2023-12-20T05:25:04;3.97;;;3.57;;
4389;SDS011;2209;48.982;8.406;2023-12-20T05:27:27;5.40;;;3.03;;
4389;SDS011;2209;48.982;8.406;2023-12-20T05:29:49;3.70;;;3.40;;
4389;SDS011;2209;48.982;8.406;2023-12-20T05:32:11;3.50;;;3.30;;
4389;SDS011;2209;48.982;8.406;2023-12-20T05:34:33;3.70;;;3.40;;
4389;SDS011;2209;48.982;8.406;2023-12-20T05:36:55;3.57;;;3.30;;
4389;SDS011;2209;48.982;8.406;2023-12-20T05:39:17;3.90;;;3.50;;
4389;SDS011;2209;48.982;8.406;2023-12-20T05:41:41;5.23;;;4.03;;
4389;SDS011;2209;48.982;8.406;2023-12-20T05:44:03;3.47;;;3.17;;
4389;SDS011;2209;48.982;8.406;2023-12-20T05:46:25;4.00;;;3.70;;
4389;SDS011;2209;48.982;8.406;2023-12-20T05:48:47;4.07;;;3.77;;
4389;SDS011;2209;48.982;8.406;2023-12-20T05:51:11;4.23;;;3.93;;
4389;SDS011;2209;48.982;8.406;2023-12-20T05:53:34;3.87;;;3.50;;
4389;SDS011;2209;48.982;8.406;2023-12-20T05:55:56;3.13;;;2.93;;
4389;SDS011;2209;48.982;8.406;2023-12-20T05:58:19;4.80;;;3.83;;
4389;SDS011;2209;48.982;8.406;2023-12-20T06:00:41;4.60;;;4.10;;
4389;SDS011;2209;48.982;8.406;2023-12-20T06:03:03;3.73;;;3.43;;
4389;SDS011;2209;48.982;8.406;2023-12-20T06:05:26;4.00;;;3.60;;
4389;SDS011;2209;48.982;8.406;2023-12-20T06:07:48;4.10;;;3.80;;
4389;SDS011;2209;48.982;8.406;2023-12-20T06:10:11;3.87;;;3.57;;
4389;SDS011;2209;48.982;8.406;2023-12-20T06:12:37;3.90;;;3.60;;
4389;SDS011;2209;48.982;8.406;2023-12-20T06:15:00;4.30;;;3.57;;
4389;SDS011;2209;48.982;8.406;2023-12-20T06:17:23;3.70;;;3.17;;
4389;SDS011;2209;48.982;8.406;2023-12-20T06:19:45;3.80;;;3.50;;
4389;SDS011;2209;48.982;8.406;2023-12-20T06:22:09;5.10;;;3.70;;
4389;SDS011;2209;48.982;8.406;2023-12-20T06:24:31;3.40;;;3.20;;
4389;SDS011;2209;48.982;8.406;2023-12-20T06:26:54;4.73;;;3.60;;
4389;SDS011;2209;48.982;8.406;2023-12-20T06:29:16;3.73;;;3.33;;
4389;SDS011;2209;48.982;8.406;2023-12-20T06:31:39;3.83;;;3.53;;
4389;SDS011;2209;48.982;8.406;2023-12-20T06:34:02;3.93;;;3.50;;
4389;SDS011;2209;48.982;8.406;2023-12-20T06:36:24;2.80;;;2.60;;
4389;SDS011;2209;48.982;8.406;2023-12-20T06:38:46;5.97;;;2.70;;
4389;SDS011;2209;48.982;8.406;2023-12-20T06:41:08;3.67;;;3.37;;
4389;SDS011;2209;48.982;8.406;2023-12-20T06:43:30;3.20;;;3.00;;
4389;SDS011;2209;48.982;8.406;2023-12-20T06:45:52;3.73;;;3.37;;
4389;SDS011;2209;48.982;8.406;2023-12-20T06:48:16;2.90;;;2.63;;
4389;SDS011;2209;48.982;8.406;2023-12-20T06:50:38;3.20;;;3.00;;
4389;SDS011;2209;48.982;8.406;2023-12-20T06:53:00;2.83;;;2.67;;
4389;SDS011;2209;48.982;8.406;2023-12-20T06:55:27;2.70;;;2.60;;
4389;SDS011;2209;48.982;8.406;2023-12-20T06:57:50;3.10;;;2.90;;
4389;SDS011;2209;48.982;8.406;2023-12-20T07:00:12;3.00;;;2.80;;
4389;SDS011;2209;48.982;8.406;2023-12-20T07:02:35;2.60;;;2.40;;
4389;SDS011;2209;48.982;8.406;2023-12-20T07:04:58;2.87;;;2.67;;
4389;SDS011;2209;48.982;8.406;2023-12-20T07:07:20;3.03;;;2.83;;
4389;SDS011;2209;48.982;8.406;2023-12-20T07:09:43;3.27;;;2.97;;
4389;SDS011;2209;48.982;8.406;2023-12-20T07:12:05;3.10;;;2.90;;
4389;SDS011;2209;48.982;8.406;2023-12-20T07:14:27;2.97;;;2.77;;
4389;SDS011;2209;48.982;8.406;2023-12-20T07:16:50;2.70;;;2.50;;
4389;SDS011;2209;48.982;8.406;2023-12-20T07:19:12;2.70;;;2.50;;
4389;SDS011;2209;48.982;8.406;2023-12-20T07:21:35;2.80;;;2.60;;
4389;SDS011;2209;48.982;8.406;2023-12-20T07:23:57;3.33;;;2.80;;
4389;SDS011;2209;48.982;8.406;2023-12-20T07:26:19;3.10;;;2.90;;
4389;SDS011;2209;48.982;8.406;2023-12-20T07:28:41;3.03;;;2.63;;
4389;SDS011;2209;48.982;8.406;2023-12-20T07:31:03;3.57;;;3.27;;
4389;SDS011;2209;48.982;8.406;2023-12-20T07:33:25;4.80;;;2.80;;
4389;SDS011;2209;48.982;8.406;2023-12-20T07:35:47;3.33;;;3.03;;
4389;SDS011;2209;48.982;8.406;2023-12-20T07:38:11;3.27;;;3.07;;
4389;SDS011;2209;48.982;8.406;2023-12-20T07:40:33;3.70;;;3.40;;
4389;SDS011;2209;48.982;8.406;2023-12-20T07:42:55;3.80;;;3.30;;
4389;SDS011;2209;48.982;8.406;2023-12-20T07:45:18;3.37;;;3.17;;
4389;SDS011;2209;48.982;8.406;2023-12-20T07:47:40;3.30;;;3.10;;
4389;SDS011;2209;48.982;8.406;2023-12-20T07:50:02;3.43;;;3.13;;
4389;SDS011;2209;48.982;8.406;2023-12-20T07:52:25;2.90;;;2.53;;
4389;SDS011;2209;48.982;8.406;2023-12-20T07:54:49;3.50;;;3.20;;
4389;SDS011;2209;48.982;8.406;2023-12-20T07:57:11;3.33;;;3.13;;
4389;SDS011;2209;48.982;8.406;2023-12-20T07:59:33;3.70;;;3.07;;
4389;SDS011;2209;48.982;8.406;2023-12-20T08:01:56;4.07;;;3.67;;
4389;SDS011;2209;48.982;8.406;2023-12-20T08:04:18;3.10;;;2.90;;
4389;SDS011;2209;48.982;8.406;2023-12-20T08:06:40;3.70;;;3.00;;
4389;SDS011;2209;48.982;8.406;2023-12-20T08:09:02;2.83;;;2.60;;
4389;SDS011;2209;48.982;8.406;2023-12-20T08:11:25;5.60;;;3.07;;
4389;SDS011;2209;48.982;8.406;2023-12-20T08:13:47;2.53;;;2.33;;
4389;SDS011;2209;48.982;8.406;2023-12-20T08:16:09;2.90;;;2.53;;
4389;SDS011;2209;48.982;8.406;2023-12-20T08:18:33;2.77;;;2.57;;
4389;SDS011;2209;48.982;8.406;2023-12-20T08:20:56;2.50;;;2.30;;
4389;SDS011;2209;48.982;8.406;2023-12-20T08:23:18;3.83;;;2.47;;
4389;SDS011;2209;48.982;8.406;2023-12-20T08:25:41;2.13;;;1.93;;
4389;SDS011;2209;48.982;8.406;2023-12-20T08:28:05;3.47;;;2.37;;
4389;SDS011;2209;48.982;8.406;2023-12-20T08:30:27;4.27;;;2.37;;
4389;SDS011;2209;48.982;8.406;2023-12-20T08:32:50;3.37;;;2.30;;
4389;SDS011;2209;48.982;8.406;2023-12-20T08:35:12;7.87;;;2.63;;
4389;SDS011;2209;48.982;8.406;2023-12-20T08:37:34;3.90;;;1.77;;
4389;SDS011;2209;48.982;8.406;2023-12-20T08:39:56;1.80;;;1.57;;
4389;SDS011;2209;48.982;8.406;2023-12-20T08:42:18;4.50;;;2.10;;
4389;SDS011;2209;48.982;8.406;2023-12-20T08:44:42;1.93;;;1.83;;
4389;SDS011;2209;48.982;8.406;2023-12-20T08:47:04;3.90;;;2.23;;
4389;SDS011;2209;48.982;8.406;2023-12-20T08:49:26;7.63;;;2.60;;
4389;SDS011;2209;48.982;8.406;2023-12-20T08:51:48;2.90;;;2.20;;
4389;SDS011;2209;48.982;8.406;2023-12-20T08:54:11;2.60;;;1.50;;
4389;SDS011;2209;48.982;8.406;2023-12-20T08:56:33;5.10;;;1.67;;
4389;SDS011;2209;48.982;8.406;2023-12-20T08:58:55;2.37;;;1.80;;
4389;SDS011;2209;48.982;8.406;2023-12-20T09:01:19;3.90;;;1.73;;
4389;SDS011;2209;48.982;8.406;2023-12-20T09:03:41;4.40;;;1.50;;
4389;SDS011;2209;48.982;8.406;2023-12-20T09:06:03;5.90;;;2.33;;
4389;SDS011;2209;48.982;8.406;2023-12-20T09:08:25;3.30;;;2.10;;
4389;SDS011;2209;48.982;8.406;2023-12-20T09:10:47;4.73;;;2.43;;
4389;SDS011;2209;48.982;8.406;2023-12-20T09:13:10;3.10;;;1.70;;
4389;SDS011;2209;48.982;8.406;2023-12-20T09:15:32;2.03;;;1.80;;
4389;SDS011;2209;48.982;8.406;2023-12-20T09:17:56;7.90;;;2.10;;
4389;SDS011;2209;48.982;8.406;2023-12-20T09:20:19;6.77;;;2.30;;
4389;SDS011;2209;48.982;8.406;2023-12-20T09:22:41;2.80;;;2.20;;
4389;SDS011;2209;48.982;8.406;2023-12-20T09:25:04;8.57;;;2.00;;
4389;SDS011;2209;48.982;8.406;2023-12-20T09:27:26;2.93;;;1.93;;
4389;SDS011;2209;48.982;8.406;2023-12-20T09:29:48;5.50;;;2.33;;
4389;SDS011;2209;48.982;8.406;2023-12-20T09:32:10;8.30;;;2.17;;
4389;SDS011;2209;48.982;8.406;2023-12-20T09:34:34;2.77;;;1.83;;
4389;SDS011;2209;48.982;8.406;2023-12-20T09:36:57;3.87;;;2.53;;
4389;SDS011;2209;48.982;8.406;2023-12-20T09:39:19;5.00;;;2.80;;
4389;SDS011;2209;48.982;8.406;2023-12-20T09:41:43;3.53;;;2.70;;
4389;SDS011;2209;48.982;8.406;2023-12-20T09:44:06;3.47;;;2.53;;
4389;SDS011;2209;48.982;8.406;2023-12-20T09:46:32;3.73;;;2.57;;
4389;SDS011;2209;48.982;8.406;2023-12-20T09:48:56;2.80;;;2.20;;
4389;SDS011;2209;48.982;8.406;2023-12-20T09:51:20;3.77;;;2.33;;
4389;SDS011;2209;48.982;8.406;2023-12-20T09:53:43;4.23;;;2.53;;
4389;SDS011;2209;48.982;8.406;2023-12-20T09:56:06;3.97;;;2.60;;
4389;SDS011;2209;48.982;8.406;2023-12-20T09:58:28;3.20;;;2.63;;
4389;SDS011;2209;48.982;8.406;2023-12-20T10:00:51;5.90;;;2.90;;
4389;SDS011;2209;48.982;8.406;2023-12-20T10:03:13;7.67;;;3.77;;
4389;SDS011;2209;48.982;8.406;2023-12-20T10:05:36;4.73;;;3.00;;
4389;SDS011;2209;48.982;8.406;2023-12-20T10:08:01;4.03;;;2.70;;
4389;SDS011;2209;48.982;8.406;2023-12-20T10:10:23;3.40;;;2.70;;
4389;SDS011;2209;48.982;8.406;2023-12-20T10:13:00;5.40;;;2.40;;
4389;SDS011;2209;48.982;8.406;2023-12-20T10:15:23;4.17;;;2.83;;
4389;SDS011;2209;48.982;8.406;2023-12-20T10:17:45;4.87;;;2.67;;
4389;SDS011;2209;48.982;8.406;2023-12-20T10:20:11;6.17;;;2.83;;
4389;SDS011;2209;48.982;8.406;2023-12-20T10:22:33;5.93;;;2.90;;
4389;SDS011;2209;48.982;8.406;2023-12-20T10:24:57;6.20;;;2.57;;
4389;SDS011;2209;48.982;8.406;2023-12-20T10:27:19;2.70;;;2.50;;
4389;SDS011;2209;48.982;8.406;2023-12-20T10:29:41;4.13;;;2.70;;
4389;SDS011;2209;48.982;8.406;2023-12-20T10:32:22;2.40;;;2.20;;
4389;SDS011;2209;48.982;8.406;2023-12-20T10:34:45;5.00;;;3.40;;
4389;SDS011;2209;48.982;8.406;2023-12-20T10:37:07;9.20;;;3.50;;
4389;SDS011;2209;48.982;8.406;2023-12-20T10:39:29;4.03;;;2.63;;
4389;SDS011;2209;48.982;8.406;2023-12-20T10:41:53;5.83;;;2.70;;
4389;SDS011;2209;48.982;8.406;2023-12-20T10:44:15;6.43;;;3.23;;
4389;SDS011;2209;48.982;8.406;2023-12-20T10:46:38;7.17;;;2.80;;
4389;SDS011;2209;48.982;8.406;2023-12-20T10:49:07;6.10;;;3.37;;
4389;SDS011;2209;48.982;8.406;2023-12-20T10:51:31;9.53;;;3.23;;
4389;SDS011;2209;48.982;8.406;2023-12-20T10:53:55;3.80;;;2.57;;
4389;SDS011;2209;48.982;8.406;2023-12-20T10:56:18;7.50;;;3.40;;
4389;SDS011;2209;48.982;8.406;2023-12-20T10:58:42;5.63;;;3.33;;
4389;SDS011;2209;48.982;8.406;2023-12-20T11:01:06;4.03;;;2.83;;
4389;SDS011;2209;48.982;8.406;2023-12-20T11:03:28;11.00;;;3.47;;
4389;SDS011;2209;48.982;8.406;2023-12-20T11:05:58;4.43;;;2.63;;
4389;SDS011;2209;48.982;8.406;2023-12-20T11:08:27;6.33;;;2.63;;
4389;SDS011;2209;48.982;8.406;2023-12-20T11:10:55;2.90;;;2.67;;
4389;SDS011;2209;48.982;8.406;2023-12-20T11:13:26;4.77;;;2.67;;
4389;SDS011;2209;48.982;8.406;2023-12-20T11:15:54;5.80;;;2.60;;
4389;SDS011;2209;48.982;8.406;2023-12-20T11:18:16;4.73;;;2.90;;
4389;SDS011;2209;48.982;8.406;2023-12-20T11:20:39;3.53;;;2.60;;
4389;SDS011;2209;48.982;8.406;2023-12-20T11:23:02;3.90;;;2.03;;
4389;SDS011;2209;48.982;8.406;2023-12-20T11:25:24;4.77;;;2.87;;
4389;SDS011;2209;48.982;8.406;2023-12-20T11:28:07;4.10;;;2.93;;
4389;SDS011;2209;48.982;8.406;2023-12-20T11:30:34;5.00;;;2.87;;
4389;SDS011;2209;48.982;8.406;2023-12-20T11:33:04;6.23;;;2.70;;
4389;SDS011;2209;48.982;8.406;2023-12-20T11:35:26;4.57;;;3.37;;
4389;SDS011;2209;48.982;8.406;2023-12-20T11:37:48;7.07;;;3.00;;
4389;SDS011;2209;48.982;8.406;2023-12-20T11:40:11;5.87;;;4.30;;
4389;SDS011;2209;48.982;8.406;2023-12-20T11:42:37;3.90;;;2.93;;
4389;SDS011;2209;48.982;8.406;2023-12-20T11:45:01;2.73;;;2.53;;
4389;SDS011;2209;48.982;8.406;2023-12-20T11:47:24;6.23;;;2.93;;
4389;SDS011;2209;48.982;8.406;2023-12-20T11:49:48;3.57;;;2.83;;
4389;SDS011;2209;48.982;8.406;2023-12-20T11:52:11;5.63;;;3.10;;
4389;SDS011;2209;48.982;8.406;2023-12-20T11:54:34;5.63;;;2.63;;
4389;SDS011;2209;48.982;8.406;2023-12-20T11:56:56;7.93;;;3.77;;
4389;SDS011;2209;48.982;8.406;2023-12-20T11:59:18;3.20;;;2.67;;
4389;SDS011;2209;48.982;8.406;2023-12-20T12:01:48;12.83;;;3.10;;
4389;SDS011;2209;48.982;8.406;2023-12-20T12:04:10;6.57;;;3.00;;
4389;SDS011;2209;48.982;8.406;2023-12-20T12:06:34;7.33;;;2.90;;
4389;SDS011;2209;48.982;8.406;2023-12-20T12:08:56;6.03;;;3.27;;
4389;SDS011;2209;48.982;8.406;2023-12-20T12:11:18;7.63;;;3.00;;
4389;SDS011;2209;48.982;8.406;2023-12-20T12:13:40;7.43;;;3.00;;
4389;SDS011;2209;48.982;8.406;2023-12-20T12:16:02;3.53;;;2.80;;
4389;SDS011;2209;48.982;8.406;2023-12-20T12:18:26;9.83;;;2.93;;
4389;SDS011;2209;48.982;8.406;2023-12-20T12:20:48;4.73;;;2.53;;
4389;SDS011;2209;48.982;8.406;2023-12-20T12:23:12;7.20;;;2.80;;
4389;SDS011;2209;48.982;8.406;2023-12-20T12:25:35;5.47;;;2.63;;
4389;SDS011;2209;48.982;8.406;2023-12-20T12:28:00;5.53;;;2.40;;
4389;SDS011;2209;48.982;8.406;2023-12-20T12:30:23;9.80;;;3.33;;
4389;SDS011;2209;48.982;8.406;2023-12-20T12:32:46;5.90;;;3.00;;
4389;SDS011;2209;48.982;8.406;2023-12-20T12:35:08;10.00;;;3.17;;
4389;SDS011;2209;48.982;8.406;2023-12-20T12:37:31;7.80;;;3.07;;
4389;SDS011;2209;48.982;8.406;2023-12-20T12:39:56;6.27;;;2.87;;
4389;SDS011;2209;48.982;8.406;2023-12-20T12:42:18;4.80;;;2.60;;
4389;SDS011;2209;48.982;8.406;2023-12-20T12:44:41;3.40;;;2.60;;
4389;SDS011;2209;48.982;8.406;2023-12-20T12:47:03;5.90;;;2.60;;
4389;SDS011;2209;48.982;8.406;2023-12-20T12:49:28;6.47;;;2.57;;
4389;SDS011;2209;48.982;8.406;2023-12-20T12:51:51;5.17;;;2.80;;
4389;SDS011;2209;48.982;8.406;2023-12-20T12:54:13;5.87;;;3.30;;
4389;SDS011;2209;48.982;8.406;2023-12-20T12:56:38;4.63;;;2.50;;
4389;SDS011;2209;48.982;8.406;2023-12-20T12:59:00;7.00;;;3.00;;
4389;SDS011;2209;48.982;8.406;2023-12-20T13:01:22;6.43;;;2.43;;
4389;SDS011;2209;48.982;8.406;2023-12-20T13:03:45;3.80;;;2.60;;
4389;SDS011;2209;48.982;8.406;2023-12-20T13:06:07;5.10;;;2.30;;
4389;SDS011;2209;48.982;8.406;2023-12-20T13:08:29;7.60;;;2.60;;
4389;SDS011;2209;48.982;8.406;2023-12-20T13:10:51;6.00;;;2.53;;
4389;SDS011;2209;48.982;8.406;2023-12-20T13:13:14;4.37;;;3.17;;
4389;SDS011;2209;48.982;8.406;2023-12-20T13:15:37;7.13;;;2.53;;
4389;SDS011;2209;48.982;8.406;2023-12-20T13:17:59;6.10;;;2.77;;
4389;SDS011;2209;48.982;8.406;2023-12-20T13:20:21;5.07;;;2.30;;
4389;SDS011;2209;48.982;8.406;2023-12-20T13:22:43;4.33;;;1.97;;
4389;SDS011;2209;48.982;8.406;2023-12-20T13:25:05;4.63;;;2.60;;
4389;SDS011;2209;48.982;8.406;2023-12-20T13:27:28;5.83;;;2.57;;
4389;SDS011;2209;48.982;8.406;2023-12-20T13:29:51;4.57;;;2.60;;
4389;SDS011;2209;48.982;8.406;2023-12-20T13:32:13;6.87;;;3.00;;
4389;SDS011;2209;48.982;8.406;2023-12-20T13:34:36;8.67;;;2.73;;
4389;SDS011;2209;48.982;8.406;2023-12-20T13:36:58;6.40;;;3.20;;
4389;SDS011;2209;48.982;8.406;2023-12-20T13:39:20;8.03;;;3.03;;
4389;SDS011;2209;48.982;8.406;2023-12-20T13:41:42;9.27;;;3.40;;
4389;SDS011;2209;48.982;8.406;2023-12-20T13:44:04;6.97;;;2.40;;
4389;SDS011;2209;48.982;8.406;2023-12-20T13:46:28;13.77;;;3.20;;
4389;SDS011;2209;48.982;8.406;2023-12-20T13:48:50;11.70;;;3.40;;
4389;SDS011;2209;48.982;8.406;2023-12-20T13:51:12;9.13;;;2.70;;
4389;SDS011;2209;48.982;8.406;2023-12-20T13:53:34;7.20;;;2.53;;
4389;SDS011;2209;48.982;8.406;2023-12-20T13:55:56;6.30;;;2.60;;
4389;SDS011;2209;48.982;8.406;2023-12-20T13:58:20;8.77;;;3.30;;
4389;SDS011;2209;48.982;8.406;2023-12-20T14:00:42;7.17;;;2.63;;
4389;SDS011;2209;48.982;8.406;2023-12-20T14:03:05;7.70;;;2.57;;
4389;SDS011;2209;48.982;8.406;2023-12-20T14:05:28;8.63;;;2.40;;
4389;SDS011;2209;48.982;8.406;2023-12-20T14:07:50;6.93;;;3.33;;
4389;SDS011;2209;48.982;8.406;2023-12-20T14:10:13;10.20;;;2.87;;
4389;SDS011;2209;48.982;8.406;2023-12-20T14:12:35;7.53;;;2.47;;
4389;SDS011;2209;48.982;8.406;2023-12-20T14:14:58;5.63;;;2.70;;
4389;SDS011;2209;48.982;8.406;2023-12-20T14:17:20;7.40;;;2.17;;
4389;SDS011;2209;48.982;8.406;2023-12-20T14:19:43;5.70;;;2.03;;
4389;SDS011;2209;48.982;8.406;2023-12-20T14:22:05;7.53;;;2.50;;
4389;SDS011;2209;48.982;8.406;2023-12-20T14:24:27;5.97;;;2.60;;
4389;SDS011;2209;48.982;8.406;2023-12-20T14:26:49;9.00;;;2.60;;
4389;SDS011;2209;48.982;8.406;2023-12-20T14:29:11;6.20;;;2.50;;
4389;SDS011;2209;48.982;8.406;2023-12-20T14:31:33;10.50;;;2.20;;
4389;SDS011;2209;48.982;8.406;2023-12-20T14:33:57;4.17;;;2.70;;
4389;SDS011;2209;48.982;8.406;2023-12-20T14:36:21;6.73;;;2.10;;
4389;SDS011;2209;48.982;8.406;2023-12-20T14:38:43;8.50;;;2.90;;
4389;SDS011;2209;48.982;8.406;2023-12-20T14:41:05;7.27;;;2.80;;
4389;SDS011;2209;48.982;8.406;2023-12-20T14:43:29;6.57;;;2.30;;
4389;SDS011;2209;48.982;8.406;2023-12-20T14:45:51;6.23;;;2.80;;
4389;SDS011;2209;48.982;8.406;2023-12-20T14:48:13;6.20;;;2.47;;